createdAt,value
2022-11-12T00:01:11.841Z,1.10
2022-11-12T00:06:32.071Z,1.00
2022-11-12T00:11:52.687Z,1.23
2022-11-12T00:17:13.063Z,0.80
2022-11-12T00:22:34.584Z,1.23
2022-11-12T00:27:55.062Z,1.15
2022-11-12T00:33:15.144Z,0.75
2022-11-12T00:38:35.468Z,0.80
2022-11-12T00:43:55.664Z,1.10
2022-11-12T00:49:16.198Z,0.75
2022-11-12T00:54:36.714Z,0.60
2022-11-12T00:59:56.825Z,0.70
2022-11-12T01:05:17.459Z,0.70
2022-11-12T01:10:37.565Z,0.82
2022-11-12T01:15:58.205Z,0.70
2022-11-12T01:21:18.746Z,0.75
2022-11-12T01:26:40.513Z,0.85
2022-11-12T01:32:01.102Z,0.82
2022-11-12T01:37:21.596Z,0.90
2022-11-12T01:42:41.984Z,0.68
2022-11-12T01:48:03.010Z,0.70
2022-11-12T01:53:28.906Z,1.02
2022-11-12T01:58:55.327Z,0.93
2022-11-12T02:04:16.124Z,0.70
2022-11-12T02:09:37.000Z,0.60
2022-11-12T02:14:57.579Z,0.60
2022-11-12T02:20:18.916Z,0.88
2022-11-12T02:25:38.946Z,0.90
2022-11-12T02:30:59.324Z,0.70
2022-11-12T02:36:20.064Z,0.80
2022-11-12T02:41:40.482Z,0.55
2022-11-12T02:47:01.041Z,0.80
2022-11-12T02:52:21.541Z,0.70
2022-11-12T02:57:42.025Z,0.70
2022-11-12T03:03:02.706Z,0.88
2022-11-12T03:08:24.769Z,0.73
2022-11-12T03:13:45.651Z,0.45
2022-11-12T03:19:05.983Z,0.60
2022-11-12T03:24:26.147Z,0.90
2022-11-12T03:29:46.487Z,0.60
2022-11-12T03:35:07.191Z,0.60
2022-11-12T03:40:28.366Z,0.55
2022-11-12T03:45:48.650Z,0.60
2022-11-12T03:51:08.863Z,0.70
2022-11-12T03:56:29.103Z,0.52
2022-11-12T04:01:49.514Z,0.57
2022-11-12T04:07:28.212Z,0.60
2022-11-12T04:18:45.750Z,0.60
2022-11-12T04:24:06.156Z,0.85
2022-11-12T04:29:44.868Z,0.70
2022-11-12T04:40:46.263Z,1.05
2022-11-12T04:46:06.905Z,1.02
2022-11-12T04:51:45.913Z,0.60
2022-11-12T04:57:06.338Z,0.73
2022-11-12T05:02:26.611Z,0.70
2022-11-12T05:07:46.892Z,0.70
2022-11-12T05:13:07.467Z,0.63
2022-11-12T05:18:28.104Z,0.82
2022-11-12T05:23:48.823Z,1.15
2022-11-12T05:29:09.313Z,0.68
2022-11-12T05:34:29.902Z,0.70
2022-11-12T05:39:50.407Z,0.70
2022-11-12T05:45:10.825Z,0.70
2022-11-12T05:50:39.803Z,0.68
2022-11-12T05:56:12.405Z,0.43
2022-11-12T06:01:34.637Z,0.77
2022-11-12T06:06:54.652Z,0.77
2022-11-12T06:12:15.282Z,0.63
2022-11-12T06:17:35.880Z,0.98
2022-11-12T06:22:57.422Z,0.73
2022-11-12T06:28:17.764Z,0.60
2022-11-12T06:33:38.306Z,0.98
2022-11-12T06:38:58.457Z,0.93
2022-11-12T06:44:22.136Z,0.80
2022-11-12T06:49:43.087Z,0.93
2022-11-12T06:55:03.763Z,0.80
2022-11-12T07:00:24.280Z,0.80
2022-11-12T07:05:44.847Z,0.77
2022-11-12T07:11:05.863Z,1.25
2022-11-12T07:16:26.214Z,1.00
2022-11-12T07:21:46.556Z,0.85
2022-11-12T07:27:06.895Z,0.73
2022-11-12T07:32:27.567Z,0.70
2022-11-12T07:37:48.033Z,0.70
2022-11-12T07:43:08.558Z,0.82
2022-11-12T07:48:30.336Z,0.90
2022-11-12T07:53:58.953Z,1.20
2022-11-12T07:59:20.136Z,1.85
2022-11-12T08:04:40.588Z,0.82
2022-11-12T08:10:00.745Z,1.00
2022-11-12T08:15:21.032Z,1.00
2022-11-12T08:20:41.952Z,1.10
2022-11-12T08:26:05.019Z,0.90
2022-11-12T08:31:25.229Z,1.20
2022-11-12T08:36:45.239Z,1.30
2022-11-12T08:42:05.450Z,1.10
2022-11-12T08:47:25.835Z,1.30
2022-11-12T08:52:46.146Z,1.10
2022-11-12T08:58:07.781Z,0.95
2022-11-12T09:03:27.882Z,0.90
2022-11-12T09:08:48.444Z,1.02
2022-11-12T09:14:09.397Z,1.05
2022-11-12T09:19:29.942Z,0.82
2022-11-12T09:24:50.393Z,0.77
2022-11-12T09:30:10.927Z,0.70
2022-11-12T09:35:31.421Z,0.80
2022-11-12T09:40:51.568Z,0.70
2022-11-12T09:46:28.356Z,0.60
2022-11-12T09:51:56.891Z,1.00
2022-11-12T09:57:17.213Z,1.00
2022-11-12T10:02:48.026Z,1.23
2022-11-12T10:08:42.918Z,1.42
2022-11-12T10:14:25.943Z,1.73
2022-11-12T10:20:13.666Z,1.83
2022-11-12T10:25:35.669Z,1.98
2022-11-12T10:31:02.498Z,1.27
2022-11-12T10:36:33.758Z,1.65
2022-11-12T10:42:07.094Z,1.52
2022-11-12T10:47:39.109Z,1.38
2022-11-12T10:53:02.463Z,1.83
2022-11-12T10:58:23.753Z,1.88
2022-11-12T11:03:54.405Z,1.50
2022-11-12T11:09:20.762Z,1.90
2022-11-12T11:14:44.572Z,1.33
2022-11-12T11:20:16.511Z,1.10
2022-11-12T11:25:37.280Z,1.67
2022-11-12T11:31:16.322Z,1.50
2022-11-12T11:42:11.062Z,0.77
2022-11-12T11:48:01.228Z,0.88
2022-11-12T11:53:40.982Z,1.00
2022-11-12T11:59:01.744Z,1.05
2022-11-12T12:04:49.673Z,1.20
2022-11-12T12:10:46.685Z,1.27
2022-11-12T12:16:37.744Z,1.00
2022-11-12T12:22:00.024Z,1.30
2022-11-12T12:27:32.375Z,0.98
2022-11-12T12:33:22.018Z,1.20
2022-11-12T12:38:55.132Z,1.00
2022-11-12T12:44:15.906Z,0.80
2022-11-12T12:49:37.703Z,1.45
2022-11-12T12:54:58.346Z,1.10
2022-11-12T13:00:30.405Z,0.98
2022-11-12T13:06:07.447Z,0.80
2022-11-12T13:12:01.349Z,1.10
2022-11-12T13:17:48.190Z,1.23
2022-11-12T13:23:10.948Z,1.00
2022-11-12T13:28:31.286Z,0.80
2022-11-12T13:33:52.399Z,1.20
2022-11-12T13:39:15.644Z,1.13
2022-11-12T13:44:36.154Z,2.20
2022-11-12T13:50:01.361Z,3.97
2022-11-12T13:55:23.279Z,7.22
2022-11-12T14:00:53.383Z,9.35
2022-11-12T14:06:23.528Z,6.55
2022-11-12T14:11:56.677Z,5.95
2022-11-12T14:17:35.721Z,4.25
2022-11-12T14:22:56.731Z,3.47
2022-11-12T14:28:31.882Z,3.10
2022-11-12T14:33:52.295Z,2.78
2022-11-12T14:39:12.798Z,2.60
2022-11-12T14:44:36.669Z,3.05
2022-11-12T14:49:58.350Z,2.75
2022-11-12T14:55:22.747Z,2.78
2022-11-12T15:00:46.326Z,2.50
2022-11-12T15:06:10.425Z,3.22
2022-11-12T15:11:36.444Z,2.78
2022-11-12T15:16:56.967Z,3.28
2022-11-12T15:22:22.677Z,3.03
2022-11-12T15:27:43.513Z,3.85
2022-11-12T15:33:14.013Z,3.42
2022-11-12T15:38:38.553Z,3.50
2022-11-12T15:43:59.889Z,2.47
2022-11-12T15:49:20.236Z,3.63
2022-11-12T15:54:41.290Z,3.67
2022-11-12T16:00:17.228Z,3.13
2022-11-12T16:05:37.389Z,4.32
2022-11-12T16:10:57.865Z,4.72
2022-11-12T16:16:18.467Z,4.10
2022-11-12T16:21:39.846Z,4.38
2022-11-12T16:27:01.417Z,4.03
2022-11-12T16:32:22.195Z,3.92
2022-11-12T16:37:43.727Z,5.22
2022-11-12T16:43:04.247Z,4.70
2022-11-12T16:48:24.809Z,4.70
2022-11-12T16:53:46.488Z,3.90
2022-11-12T16:59:07.027Z,5.13
2022-11-12T17:04:27.454Z,4.93
2022-11-12T17:09:47.969Z,3.95
2022-11-12T17:15:08.886Z,3.97
2022-11-12T17:20:29.873Z,5.68
2022-11-12T17:26:01.546Z,4.55
2022-11-12T17:31:23.357Z,4.47
2022-11-12T17:36:44.179Z,3.88
2022-11-12T17:42:05.464Z,4.10
2022-11-12T17:47:26.014Z,5.05
2022-11-12T17:52:46.450Z,4.72
2022-11-12T17:58:07.252Z,5.93
2022-11-12T18:03:27.942Z,6.45
2022-11-12T18:08:53.235Z,5.60
2022-11-12T18:14:14.389Z,5.30
2022-11-12T18:19:34.708Z,5.20
2022-11-12T18:24:55.063Z,4.40
2022-11-12T18:30:19.243Z,6.43
2022-11-12T18:35:39.977Z,5.88
2022-11-12T18:41:21.306Z,5.60
2022-11-12T18:46:41.576Z,6.03
2022-11-12T18:52:01.799Z,4.72
2022-11-12T18:57:22.658Z,3.72
2022-11-12T19:02:43.323Z,4.00
2022-11-12T19:08:03.964Z,3.85
2022-11-12T19:13:25.257Z,2.63
2022-11-12T19:18:46.375Z,3.08
2022-11-12T19:24:07.074Z,2.80
2022-11-12T19:29:27.448Z,2.88
2022-11-12T19:34:48.036Z,3.72
2022-11-12T19:40:08.845Z,3.85
2022-11-12T19:45:29.376Z,4.18
2022-11-12T19:50:49.625Z,3.53
2022-11-12T19:56:12.085Z,4.55
2022-11-12T20:01:32.303Z,3.65
2022-11-12T20:06:52.914Z,2.85
2022-11-12T20:12:13.544Z,3.47
2022-11-12T20:17:33.940Z,3.20
2022-11-12T20:22:54.009Z,3.95
2022-11-12T20:28:14.377Z,2.47
2022-11-12T20:33:39.370Z,2.67
2022-11-12T20:39:03.209Z,2.80
2022-11-12T20:44:23.314Z,2.10
2022-11-12T20:49:43.644Z,2.00
2022-11-12T20:55:04.388Z,1.73
2022-11-12T21:00:25.067Z,1.73
2022-11-12T21:05:45.481Z,2.20
2022-11-12T21:11:09.745Z,2.53
2022-11-12T21:16:30.049Z,2.60
2022-11-12T21:21:50.407Z,2.42
2022-11-12T21:27:11.888Z,2.85
2022-11-12T21:32:32.585Z,2.95
2022-11-12T21:37:52.882Z,3.60
2022-11-12T21:43:13.187Z,3.05
2022-11-12T21:48:33.469Z,3.97
2022-11-12T21:53:59.563Z,4.47
2022-11-12T21:59:20.284Z,4.35
2022-11-12T22:04:40.476Z,4.30
2022-11-12T22:10:00.853Z,4.88
2022-11-12T22:15:24.296Z,5.57
2022-11-12T22:20:55.482Z,5.57
2022-11-12T22:26:24.831Z,4.57
2022-11-12T22:31:44.993Z,4.55
2022-11-12T22:37:05.438Z,4.32
2022-11-12T22:42:25.725Z,3.88
2022-11-12T22:47:46.233Z,3.75
2022-11-12T22:53:06.847Z,3.45
2022-11-12T22:58:27.550Z,2.28
2022-11-12T23:03:49.539Z,2.60
2022-11-12T23:09:16.113Z,3.40
2022-11-12T23:14:36.553Z,3.50
2022-11-12T23:19:56.924Z,3.85
2022-11-12T23:25:17.548Z,2.75
2022-11-12T23:30:38.197Z,4.28
2022-11-12T23:36:09.706Z,3.38
2022-11-12T23:41:29.848Z,3.60
2022-11-12T23:46:50.435Z,4.18
2022-11-12T23:52:10.766Z,3.97
2022-11-12T23:57:33.052Z,3.50
